METAR AND TAF INFORMATION
METAR FOR VTBU
ADDS - METARS form results

(1213 UTC 17 June 2019)
Data provider http://aviationweather.gov/metar/data/
 
METAR text: VTBU 171200Z 26006KT 9999 FEW020 29/22 Q1007 NOSIG
Conditions at: VTBU (RAYONG/U-TAPHAO , TH) observed 1200 UTC 17 June 2019
Temperature: 29.0°C (84°F)
Dewpoint: 22.0°C (72°F) [RH = 66%]
Pressure (altimeter): 29.73 inches Hg (1007.0 mb)
Winds: from the W (260 degrees) at 7 MPH (6 knots; 3.1 m/s)
Visibility: 6 or more miles (10+ km)
Ceiling: at least 12,000 feet AGL
Clouds: few clouds at 2000 feet AGL
Weather: no significant weather observed at this time

METAR text: VTBU 171130Z 25006KT 9999 FEW020 SCT100 29/22 Q1006 NOSIG
Conditions at: VTBU (RAYONG/U-TAPHAO , TH) observed 1130 UTC 17 June 2019
Temperature: 29.0°C (84°F)
Dewpoint: 22.0°C (72°F) [RH = 66%]
Pressure (altimeter): 29.70 inches Hg (1006.0 mb)
Winds: from the WSW (250 degrees) at 7 MPH (6 knots; 3.1 m/s)
Visibility: 6 or more miles (10+ km)
Ceiling: at least 12,000 feet AGL
Clouds: few clouds at 2000 feet AGL
scattered clouds at 10000 feet AGL
Weather: no significant weather observed at this time

Forecast for: VTBU (RAYONG/U-TAPHAO , TH)
Text: TAF VTBU 171100Z 1712/1812 20008KT 9999 FEW020
Forecast period: 1200 to 1700 UTC 17 June 2019
Forecast type: FROM: standard forecast or significant change
Winds: from the SSW (200 degrees) at 9 MPH (8 knots; 4.1 m/s)
Visibility: 6 or more miles 10+ km)
Ceiling: at least 12,000 feet AGL
Clouds: few clouds at 2000 feet AGL
Weather: no significant weather forecast for this period
Text: BECMG 1717/1719 25004KT
Forecast period: 1700 UTC 17 June 2019 to 1200 UTC 18 June 2019
Forecast type: BECOMING: Conditions expected to become as follows by 1900 UTC 17 June 2019
Winds: from the WSW (250 degrees) at 5 MPH (4 knots; 2.1 m/s)
Visibility: 6 or more miles 10+ km)
Ceiling: at least 12,000 feet AGL
Clouds: few clouds at 2000 feet AGL
Weather: no significant weather forecast for this period

 AIRPORT MAP

 RUNWAY INFORMATION

 AIRPORT FREQUENCIES
Type APP Name APP Frequency 119.7 MHZ
Type GND Name GND Frequency 121.9 MHZ
Type TWR Name TWR Frequency 118.3 MHZ

 AIRPORT NEAR NAVIGATION AIDS
Type TACAN Name U Taphao Frequency 115800 KHZ
Type VOR-DME Name U Taphao Frequency 110800 KHZ
Type NDB Name U Taphao Frequency 414 KHZ



2018 Air Astana Virtual Airline